Padre Island — WDB4436 — position and weather

sailwx.info

Track history (hours):
 
Tides and Currents Weather Stations Pressure Air Temp Water Temp Dewpoint Dewpoint Depression Visibility Wind Speed Wind Dir Waves Ship Positions

Padre Island

Owner: Great Lakes Dredge & Dock Company, Oak Brook, IL. More information available from US FCC via Universal Licensing System and Coast Guard Vessel Documentation Center.

Last reported at 2018-Feb-24 04:30 UTC. Time now 2018-Feb-24 04:38 UTC.
Position N 31°59' W 080°44'.

Length 86 m; draft 19.6 m.

Type: Dredging. MMSI: 367525000.

Date/timePositionNaut miles runAvg speedWind from/ knotsBaromVisibWave heightAir tempDewpointWater temp
2018-Feb-24 04:30N 31°59' W 080°44'0 0.3
2018-Feb-24 04:00N 31°59' W 080°45'1 1.5
2018-Feb-24 03:30N 31°58' W 080°44'0 0.1
2018-Feb-24 03:00N 31°58' W 080°44'0 0.9
2018-Feb-24 02:31N 31°58' W 080°44'0 0.2
2018-Feb-24 02:01N 31°58' W 080°44'0 0.5
2018-Feb-24 01:30N 31°58' W 080°44'4 8.3
2018-Feb-24 01:00N 32°00' W 080°48'4 7.7
2018-Feb-24 00:30N 32°02' W 080°52'2 4.1
2018-Feb-24 00:00N 32°02' W 080°54'0 0.1
2018-Feb-23 23:31N 32°02' W 080°54'0 0.0
2018-Feb-23 23:00N 32°02' W 080°54'1 1.1
2018-Feb-23 22:31N 32°02' W 080°54'4 7.0
2018-Feb-23 22:00N 32°02' W 080°49'4 8.1
2018-Feb-23 21:30N 31°59' W 080°46'2 3.3
2018-Feb-23 21:00N 31°58' W 080°44'1 1.3
2018-Feb-23 20:30N 31°58' W 080°44'0 0.1
2018-Feb-23 20:00N 31°58' W 080°44'0 0.8
2018-Feb-23 19:30N 31°58' W 080°44'1 1.0
2018-Feb-23 19:00N 31°59' W 080°45'1 1.1
2018-Feb-23 18:30N 31°59' W 080°45'0 0.2
2018-Feb-23 18:00N 31°59' W 080°45'4 8.5
2018-Feb-23 17:30N 32°02' W 080°49'4 8.2
2018-Feb-23 17:00N 32°02' W 080°54'1 1.0
2018-Feb-23 16:30N 32°02' W 080°55'0 0.0
2018-Feb-23 16:00N 32°02' W 080°55'1 1.5
2018-Feb-23 15:30N 32°02' W 080°54'4 8.2
2018-Feb-23 15:00N 32°02' W 080°49'4 7.9
2018-Feb-23 14:30N 31°59' W 080°45'1 1.9
2018-Feb-23 13:58N 31°58' W 080°44'1 1.7
2018-Feb-23 13:30N 31°58' W 080°43'1 1.5
2018-Feb-23 13:00N 31°58' W 080°44'1 1.4
2018-Feb-23 12:30N 31°59' W 080°45'0 0.5
2018-Feb-23 11:59N 31°59' W 080°45'0 0.8
2018-Feb-23 11:31N 31°59' W 080°45'0 0.8
2018-Feb-23 11:01N 31°59' W 080°45'1 1.5
2018-Feb-23 10:30N 31°59' W 080°44'1 1.1
2018-Feb-23 10:00N 31°58' W 080°44'1 1.4
2018-Feb-23 09:30N 31°58' W 080°44'2 4.9
2018-Feb-23 09:00N 31°56' W 080°46'3 5.8
2018-Feb-23 08:30N 31°59' W 080°46'3 6.7
2018-Feb-23 08:00N 32°01' W 080°49'1 1.7
2018-Feb-23 07:30N 32°01' W 080°48'0 0.1
2018-Feb-23 07:00N 32°01' W 080°48'0 0.2
2018-Feb-23 06:30N 32°01' W 080°48'0 0.3
2018-Feb-23 06:01N 32°01' W 080°48'1 1.3
2018-Feb-23 05:30N 32°01' W 080°48'0 0.4
2018-Feb-23 04:59N 32°01' W 080°48'0 0.5
2018-Feb-23 04:28N 32°01' W 080°48'0 0.3
2018-Feb-23 04:00N 32°01' W 080°49'0 0.0
2018-Feb-23 03:30N 32°01' W 080°49'3 7.0
2018-Feb-23 03:00N 31°59' W 080°46'3 5.8
2018-Feb-23 02:30N 31°56' W 080°47'3 6.1
2018-Feb-23 02:00N 31°59' W 080°46'3 6.7
2018-Feb-23 01:30N 32°01' W 080°49'0 0.1
2018-Feb-23 01:01N 32°01' W 080°49'0 0.3
2018-Feb-23 00:30N 32°02' W 080°49'0 0.1
2018-Feb-23 00:00N 32°01' W 080°49'0 0.4
2018-Feb-22 23:31N 32°01' W 080°49'0 0.1
2018-Feb-22 23:00N 32°01' W 080°49'0 0.1
2018-Feb-22 22:30N 32°01' W 080°49'0 0.3
2018-Feb-22 22:00N 32°01' W 080°48'0 0.0
2018-Feb-22 21:30N 32°01' W 080°48'0 0.0
2018-Feb-22 21:00N 32°01' W 080°48'0 0.2
2018-Feb-22 20:30N 32°01' W 080°49'1 1.3
2018-Feb-22 19:59N 32°01' W 080°48'0 0.4
2018-Feb-22 19:30N 32°01' W 080°48'3 5.2
2018-Feb-22 19:00N 32°02' W 080°50'4 7.3
2018-Feb-22 18:30N 32°02' W 080°54'0 0.1
2018-Feb-22 18:00N 32°02' W 080°55'0 0.0
2018-Feb-22 17:29N 32°02' W 080°55'0 0.2
2018-Feb-22 17:00N 32°02' W 080°55'4 8.3
2018-Feb-22 16:30N 32°02' W 080°50'4 8.4
2018-Feb-22 16:00N 31°59' W 080°46'1 2.6
2018-Feb-22 15:30N 31°59' W 080°45'1 1.7
2018-Feb-22 15:00N 31°58' W 080°44'0 0.1
2018-Feb-22 14:30N 31°58' W 080°44'1 1.6
2018-Feb-22 14:00N 31°59' W 080°45'1 1.8
2018-Feb-22 13:30N 31°59' W 080°46'4 8.1
2018-Feb-22 13:00N 32°02' W 080°49'4 8.0
2018-Feb-22 12:31N 32°02' W 080°54'1 1.3
2018-Feb-22 12:00N 32°02' W 080°54'0 0.0
2018-Feb-22 11:30N 32°02' W 080°54'1 3.0
2018-Feb-22 11:00N 32°02' W 080°53'4 7.3
2018-Feb-22 10:30N 32°01' W 080°48'4 7.7
2018-Feb-22 10:00N 31°59' W 080°45'0 0.3
2018-Feb-22 09:30N 31°59' W 080°45'1 1.4
2018-Feb-22 09:00N 31°58' W 080°44'0 0.8
2018-Feb-22 08:30N 31°59' W 080°45'0 0.3
2018-Feb-22 08:00N 31°59' W 080°45'0 0.9
2018-Feb-22 07:30N 31°58' W 080°44'0 0.8
2018-Feb-22 07:00N 31°58' W 080°44'0 0.7
2018-Feb-22 06:30N 31°58' W 080°44'2 4.8
2018-Feb-22 06:00N 31°59' W 080°46'4 8.5
2018-Feb-22 05:31N 32°02' W 080°50'4 8.0
2018-Feb-22 05:01N 32°02' W 080°55'0 0.1
2018-Feb-22 04:30N 32°02' W 080°55'0 0.0
2018-Feb-22 04:00N 32°02' W 080°55'0 0.3
2018-Feb-22 03:30N 32°02' W 080°54'4 8.6
2018-Feb-22 03:00N 32°02' W 080°49'4 8.5
2018-Feb-22 02:30N 31°59' W 080°46'1 1.1
2018-Feb-22 02:00N 31°59' W 080°45'0 0.0
2018-Feb-22 01:30N 31°59' W 080°45'1 2.1
2018-Feb-22 01:00N 31°58' W 080°44'0 0.3
2018-Feb-22 00:30N 31°58' W 080°44'1 1.4
2018-Feb-22 00:01N 31°59' W 080°45'1 2.7
2018-Feb-21 23:30N 31°59' W 080°46'4 8.2
2018-Feb-21 23:00N 32°02' W 080°50'3 6.6
2018-Feb-21 22:30N 32°02' W 080°53'1 1.6
2018-Feb-21 22:00N 32°02' W 080°54'0 0.0
2018-Feb-21 21:30N 32°02' W 080°54'0 0.1
2018-Feb-21 21:00N 32°02' W 080°54'2 4.1
2018-Feb-21 20:31N 32°02' W 080°52'3 6.6
2018-Feb-21 20:00N 32°01' W 080°48'3 6.8
2018-Feb-21 19:30N 31°59' W 080°45'1 1.2
2018-Feb-21 19:00N 31°59' W 080°45'0 0.7
2018-Feb-21 18:29N 31°58' W 080°44'0 1.0
2018-Feb-21 18:00N 31°58' W 080°44'0 0.2
2018-Feb-21 17:31N 31°58' W 080°44'0 0.8
2018-Feb-21 16:59N 31°58' W 080°44'1 1.2
2018-Feb-21 16:31N 31°59' W 080°45'2 2.9
2018-Feb-21 15:59N 31°59' W 080°46'4 8.4
2018-Feb-21 15:31N 32°02' W 080°50'4 8.1
2018-Feb-21 15:00N 32°02' W 080°55'0 0.2
2018-Feb-21 14:30N 32°02' W 080°55'0 0.0
2018-Feb-21 14:00N 32°02' W 080°55'0 0.0
2018-Feb-21 13:30N 32°02' W 080°55'0 0.6
2018-Feb-21 13:00N 32°02' W 080°54'4 8.2
2018-Feb-21 12:30N 32°02' W 080°49'4 8.4
2018-Feb-21 12:00N 31°59' W 080°46'2 3.7
2018-Feb-21 11:30N 31°58' W 080°44'1 2.1
2018-Feb-21 11:01N 31°59' W 080°45'0 0.4
2018-Feb-21 10:30N 31°59' W 080°45'0 0.7
2018-Feb-21 10:00N 31°59' W 080°45'0 0.5
2018-Feb-21 09:30N 31°58' W 080°44'0 0.7
2018-Feb-21 09:00N 31°58' W 080°44'0 0.6
2018-Feb-21 08:30N 31°58' W 080°44'1 1.2
2018-Feb-21 08:00N 31°58' W 080°44'4 8.4
2018-Feb-21 07:30N 32°01' W 080°48'4 8.0
2018-Feb-21 07:00N 32°02' W 080°53'1 2.5
2018-Feb-21 06:31N 32°02' W 080°54'0 0.0
2018-Feb-21 06:00N 32°02' W 080°54'0 0.7
2018-Feb-21 05:30N 32°02' W 080°54'4 8.3
2018-Feb-21 05:01N 32°02' W 080°49'4 8.6
2018-Feb-21 04:30N 31°59' W 080°45'1 2.8
2018-Feb-21 04:00N 31°58' W 080°44'0 0.4
2018-Feb-21 03:29N 31°58' W 080°44'1 1.3
2018-Feb-21 02:59N 31°58' W 080°44'1 1.6
2018-Feb-21 02:31N 31°59' W 080°45'2 4.5
2018-Feb-21 02:00N 32°00' W 080°47'4 7.9
2018-Feb-21 01:30N 32°02' W 080°51'3 5.5
2018-Feb-21 01:00N 32°02' W 080°55'0 0.0
2018-Feb-21 00:30N 32°02' W 080°55'0 0.0
2018-Feb-21 00:00N 32°02' W 080°55'2 4.9
2018-Feb-20 23:30N 32°02' W 080°52'3 6.4
2018-Feb-20 23:00N 32°01' W 080°48'4 7.1
2018-Feb-20 22:30N 31°59' W 080°45'1 1.2
2018-Feb-20 22:00N 31°58' W 080°44'1 1.2
2018-Feb-20 21:30N 31°59' W 080°45'0 0.4
2018-Feb-20 21:00N 31°59' W 080°45'0 0.5
2018-Feb-20 20:30N 31°59' W 080°45'0 0.4
2018-Feb-20 20:00N 31°59' W 080°45'0 0.6
2018-Feb-20 19:30N 31°58' W 080°44'0 0.9
2018-Feb-20 19:00N 31°58' W 080°44'2 3.9
2018-Feb-20 18:30N 31°59' W 080°46'4 8.8
2018-Feb-20 18:00N 32°02' W 080°50'4 6.7
2018-Feb-20 17:27N 32°02' W 080°54'0 0.9
2018-Feb-20 17:00N 32°02' W 080°55'0 0.0
2018-Feb-20 16:30N 32°02' W 080°55'0 0.2
2018-Feb-20 16:00N 32°02' W 080°55'4 8.3
2018-Feb-20 15:30N 32°02' W 080°50'4 8.4
2018-Feb-20 15:00N 31°59' W 080°46'1 2.7
2018-Feb-20 14:29N 31°59' W 080°45'1 1.8
2018-Feb-20 14:00N 31°58' W 080°44'0 0.6
2018-Feb-20 13:30N 31°58' W 080°44'1 1.6
2018-Feb-20 12:59N 31°59' W 080°45'1 2.2
2018-Feb-20 12:30N 31°59' W 080°46'4 8.5
2018-Feb-20 12:01N 32°02' W 080°49'3 6.6
2018-Feb-20 11:30N 32°02' W 080°53'1 1.7
2018-Feb-20 11:00N 32°02' W 080°54'0 0.1
2018-Feb-20 10:30N 32°02' W 080°54'0 0.1
2018-Feb-20 10:00N 32°02' W 080°54'3 5.8
2018-Feb-20 09:30N 32°02' W 080°51'4 7.5
2018-Feb-20 09:00N 31°60' W 080°47'2 4.5
2018-Feb-20 08:30N 31°59' W 080°45'0 0.4
2018-Feb-20 08:00N 31°59' W 080°45'0 0.6
2018-Feb-20 07:30N 31°59' W 080°45'0 0.4
2018-Feb-20 07:00N 31°59' W 080°45'0 0.4
2018-Feb-20 06:31N 31°59' W 080°45'0 0.7
2018-Feb-20 06:00N 31°58' W 080°44'0 0.4
2018-Feb-20 05:30N 31°58' W 080°44'0 0.8
2018-Feb-20 05:00N 31°58' W 080°44'4 7.6
2018-Feb-20 04:30N 31°60' W 080°47'4 7.9
2018-Feb-20 03:59N 32°02' W 080°51'3 5.5
2018-Feb-20 03:31N 32°02' W 080°55'0 0.0
2018-Feb-20 03:00N 32°02' W 080°55'0 0.4
2018-Feb-20 02:30N 32°02' W 080°55'4 7.4
2018-Feb-20 02:00N 32°02' W 080°50'4 7.8
2018-Feb-20 01:30N 31°60' W 080°47'2 3.9
2018-Feb-20 01:00N 31°59' W 080°45'1 1.9
2018-Feb-20 00:30N 31°58' W 080°44'0 0.1
2018-Feb-20 00:00N 31°58' W 080°44'0 0.5
2018-Feb-19 23:31N 31°58' W 080°44'1 1.9
2018-Feb-19 23:00N 31°59' W 080°45'3 5.2
2018-Feb-19 22:30N 32°00' W 080°48'4 7.9
2018-Feb-19 21:58N 32°02' W 080°52'2 4.2
2018-Feb-19 21:31N 32°02' W 080°54'0 0.0
2018-Feb-19 21:00N 32°02' W 080°54'0 0.0
2018-Feb-19 20:30N 32°02' W 080°54'0 0.4
2018-Feb-19 20:00N 32°02' W 080°55'0 0.4
2018-Feb-19 19:30N 32°02' W 080°54'1 1.6
2018-Feb-19 19:00N 32°02' W 080°53'4 6.9
2018-Feb-19 18:29N 32°02' W 080°49'4 8.2
2018-Feb-19 18:00N 31°59' W 080°46'1 2.9
2018-Feb-19 17:30N 31°58' W 080°44'0 0.7
2018-Feb-19 16:58N 31°58' W 080°44'0 0.9
2018-Feb-19 16:30N 31°58' W 080°44'1 1.1
2018-Feb-19 16:00N 31°58' W 080°44'1 1.6
2018-Feb-19 15:30N 31°59' W 080°45'2 4.2
2018-Feb-19 15:01N 31°60' W 080°47'4 8.1
2018-Feb-19 14:30N 32°02' W 080°51'3 6.4
2018-Feb-19 14:00N 32°02' W 080°55'0 0.0
2018-Feb-19 13:30N 32°02' W 080°55'0 0.0
2018-Feb-19 13:00N 32°02' W 080°55'0 0.0
2018-Feb-19 12:30N 32°02' W 080°55'0 0.0
2018-Feb-19 12:01N 32°02' W 080°54'0 0.1
2018-Feb-19 11:30N 32°02' W 080°55'2 5.0
2018-Feb-19 11:00N 32°02' W 080°52'4 7.9
2018-Feb-19 10:30N 32°00' W 080°48'3 5.8
2018-Feb-19 09:59N 31°59' W 080°45'1 1.2
2018-Feb-19 09:30N 31°59' W 080°45'0 0.2
2018-Feb-19 09:00N 31°59' W 080°45'0 0.9
2018-Feb-19 08:30N 31°59' W 080°45'0 1.0
2018-Feb-19 08:01N 31°58' W 080°44'0 0.6
2018-Feb-19 07:30N 31°58' W 080°44'0 0.4
2018-Feb-19 07:00N 31°58' W 080°44'4 8.0
2018-Feb-19 06:30N 32°01' W 080°48'4 8.1
2018-Feb-19 06:00N 32°02' W 080°52'2 3.1
2018-Feb-19 05:29N 32°02' W 080°54'0 0.0
2018-Feb-19 05:00N 32°02' W 080°54'0 0.4
2018-Feb-19 04:30N 32°02' W 080°54'4 7.8
2018-Feb-19 04:00N 32°02' W 080°50'4 8.3
2018-Feb-19 03:30N 31°59' W 080°46'2 3.0
2018-Feb-19 03:00N 31°58' W 080°44'1 1.6
2018-Feb-19 02:30N 31°58' W 080°44'1 1.4
2018-Feb-19 02:00N 31°58' W 080°44'1 1.8
2018-Feb-19 01:30N 31°59' W 080°45'3 6.0
2018-Feb-19 01:00N 32°01' W 080°48'4 7.8
2018-Feb-19 00:30N 32°02' W 080°52'2 4.0
2018-Feb-19 00:00N 32°02' W 080°55'0 0.0
2018-Feb-18 23:30N 32°02' W 080°55'0 0.0
2018-Feb-18 23:00N 32°02' W 080°55'2 3.9
2018-Feb-18 22:30N 32°02' W 080°52'4 8.1
2018-Feb-18 22:00N 32°01' W 080°48'4 7.0
2018-Feb-18 21:30N 31°59' W 080°44'1 1.1
2018-Feb-18 21:00N 31°58' W 080°44'0 0.9
2018-Feb-18 20:30N 31°58' W 080°44'0 0.4
2018-Feb-18 20:00N 31°59' W 080°45'0 0.8
2018-Feb-18 19:30N 31°58' W 080°44'0 0.7
2018-Feb-18 19:00N 31°58' W 080°44'1 1.3
2018-Feb-18 18:30N 31°58' W 080°45'4 8.5
2018-Feb-18 18:00N 32°01' W 080°48'4 8.2
2018-Feb-18 17:30N 32°02' W 080°53'1 2.1
2018-Feb-18 17:00N 32°02' W 080°54'0 0.0
2018-Feb-18 16:30N 32°02' W 080°54'1 2.0
2018-Feb-18 16:00N 32°02' W 080°53'4 7.9
2018-Feb-18 15:30N 32°01' W 080°49'4 8.2
2018-Feb-18 14:58N 31°59' W 080°45'1 1.5
2018-Feb-18 14:31N 31°58' W 080°44'0 0.4
2018-Feb-18 14:00N 31°58' W 080°44'1 1.4
2018-Feb-18 13:30N 31°59' W 080°44'1 1.7
2018-Feb-18 13:00N 31°59' W 080°45'3 6.9
2018-Feb-18 12:30N 32°01' W 080°48'3 6.2
2018-Feb-18 12:00N 32°02' W 080°52'2 4.4
2018-Feb-18 11:30N 32°02' W 080°55'0 0.0
2018-Feb-18 11:00N 32°02' W 080°55'0 0.0
2018-Feb-18 10:30N 32°02' W 080°55'0 0.2
2018-Feb-18 10:00N 32°02' W 080°55'3 6.2
2018-Feb-18 09:30N 32°02' W 080°51'4 8.4
2018-Feb-18 09:00N 31°60' W 080°47'2 3.6
2018-Feb-18 08:30N 31°59' W 080°45'0 0.5
2018-Feb-18 08:00N 31°59' W 080°45'0 0.8
2018-Feb-18 07:30N 31°59' W 080°45'0 0.7
2018-Feb-18 07:00N 31°58' W 080°44'1 1.0
2018-Feb-18 06:30N 31°58' W 080°44'2 4.5
2018-Feb-18 06:00N 31°59' W 080°46'4 8.4
2018-Feb-18 05:30N 32°02' W 080°50'4 8.0
2018-Feb-18 05:01N 32°02' W 080°54'0 0.2
2018-Feb-18 04:30N 32°02' W 080°54'0 0.1
2018-Feb-18 04:00N 32°02' W 080°54'0 0.2
2018-Feb-18 03:30N 32°02' W 080°54'0 0.2
2018-Feb-18 03:00N 32°02' W 080°55'4 8.1
2018-Feb-18 02:30N 32°02' W 080°50'4 8.4
2018-Feb-18 02:00N 31°59' W 080°46'2 4.5
2018-Feb-18 01:30N 31°58' W 080°44'1 1.3
2018-Feb-18 01:01N 31°58' W 080°44'0 0.6
2018-Feb-18 00:28N 31°58' W 080°45'0 0.9
2018-Feb-18 00:00N 31°59' W 080°45'2 3.2
2018-Feb-17 23:30N 31°60' W 080°47'4 8.1
2018-Feb-17 23:00N 32°02' W 080°50'3 6.9
2018-Feb-17 22:30N 32°02' W 080°54'0 0.1
2018-Feb-17 22:00N 32°02' W 080°54'0 0.1
2018-Feb-17 21:30N 32°02' W 080°54'1 2.3
2018-Feb-17 20:58N 32°02' W 080°53'4 7.7
2018-Feb-17 20:30N 32°01' W 080°49'4 8.0
2018-Feb-17 19:59N 31°59' W 080°45'0 0.5
2018-Feb-17 19:30N 31°59' W 080°45'0 0.9
2018-Feb-17 19:00N 31°59' W 080°45'0 0.7
2018-Feb-17 18:30N 31°58' W 080°45'0 0.9
2018-Feb-17 18:00N 31°58' W 080°44'0 0.9
2018-Feb-17 17:31N 31°58' W 080°44'4 7.0
2018-Feb-17 16:59N 31°60' W 080°47'4 8.1
2018-Feb-17 16:30N 32°02' W 080°51'3 5.6
2018-Feb-17 16:00N 32°02' W 080°54'0 0.2
2018-Feb-17 15:30N 32°02' W 080°54'0 0.2
2018-Feb-17 15:00N 32°02' W 080°55'0 0.1
2018-Feb-17 14:28N 32°02' W 080°55'3 5.8
2018-Feb-17 14:00N 32°02' W 080°51'4 7.8
2018-Feb-17 13:30N 32°00' W 080°48'3 6.1
2018-Feb-17 13:00N 31°59' W 080°45'1 1.1
2018-Feb-17 12:30N 31°58' W 080°44'0 0.8
2018-Feb-17 12:00N 31°58' W 080°44'0 0.8
2018-Feb-17 11:30N 31°58' W 080°44'1 1.0
2018-Feb-17 11:00N 31°59' W 080°45'1 1.1
2018-Feb-17 10:29N 31°59' W 080°45'2 4.5
2018-Feb-17 10:00N 31°57' W 080°45'2 4.2
2018-Feb-17 09:30N 31°56' W 080°43'4 8.2
2018-Feb-17 09:01N 31°57' W 080°38'1 1.6
2018-Feb-17 08:30N 31°57' W 080°39'0 0.2
2018-Feb-17 08:00N 31°57' W 080°39'0 0.4
2018-Feb-17 07:30N 31°57' W 080°39'4 8.3
2018-Feb-17 07:00N 31°57' W 080°44'2 4.1
2018-Feb-17 06:30N 31°57' W 080°46'5 8.0
2018-Feb-17 05:50N 31°57' W 080°40'1 4.2
2018-Feb-17 05:30N 31°57' W 080°38'1 1.1
2018-Feb-17 05:00N 31°57' W 080°39'0 0.6
2018-Feb-17 04:30N 31°57' W 080°39'2 3.6
2018-Feb-17 04:00N 31°57' W 080°41'4 8.6
2018-Feb-17 03:30N 31°57' W 080°46'1 2.5
2018-Feb-17 03:00N 31°56' W 080°45'5 8.4
2018-Feb-17 02:26N 31°57' W 080°39'1 1.8
2018-Feb-17 02:00N 31°57' W 080°38'1 1.2
2018-Feb-17 01:30N 31°57' W 080°39'0 0.1
2018-Feb-17 01:00N 31°57' W 080°39'4 7.6
2018-Feb-17 00:30N 31°57' W 080°43'1 2.7
2018-Feb-17 00:00N 31°56' W 080°45'5 5.7
2018-Feb-16 23:04N 31°57' W 080°38'0 1.0
2018-Feb-16 22:57N 31°57' W 080°38'0 0.3
2018-Feb-16 22:23N 31°57' W 080°38'1 1.6
2018-Feb-16 21:59N 31°57' W 080°39'0 0.2
2018-Feb-16 21:29N 31°57' W 080°39'4 7.4
2018-Feb-16 21:00N 31°57' W 080°43'2 3.2
2018-Feb-16 20:30N 31°57' W 080°45'6 7.1
2018-Feb-16 19:43N 31°57' W 080°39'0 1.2
2018-Feb-16 19:30N 31°57' W 080°39'0 0.2
2018-Feb-16 19:00N 31°57' W 080°39'0 0.1
2018-Feb-16 18:26N 31°57' W 080°39'3 7.3
2018-Feb-16 18:00N 31°57' W 080°43'3 6.3
2018-Feb-16 17:30N 31°57' W 080°46'1 2.1
2018-Feb-16 16:59N 31°56' W 080°46'6 7.9
2018-Feb-16 16:12N 31°57' W 080°38'0 0.9
2018-Feb-16 15:57N 31°57' W 080°38'0 0.2
2018-Feb-16 15:29N 31°57' W 080°38'1 1.4
2018-Feb-16 15:00N 31°57' W 080°39'1 1.5
2018-Feb-16 14:30N 31°57' W 080°40'4 8.6
2018-Feb-16 14:00N 31°56' W 080°45'1 1.2
2018-Feb-16 13:28N 31°56' W 080°46'7 8.1
2018-Feb-16 12:39N 31°57' W 080°38'0 1.2
2018-Feb-16 12:30N 31°57' W 080°38'0 0.2
2018-Feb-16 12:00N 31°57' W 080°38'0 0.4
2018-Feb-16 11:30N 31°57' W 080°38'0 0.9
2018-Feb-16 11:00N 31°57' W 080°39'1 2.3
2018-Feb-16 10:30N 31°57' W 080°40'4 8.5
2018-Feb-16 10:01N 31°57' W 080°45'3 5.4
2018-Feb-16 09:24N 31°57' W 080°41'3 6.7
2018-Feb-16 09:00N 31°57' W 080°38'0 0.4
2018-Feb-16 08:30N 31°57' W 080°38'0 1.0
2018-Feb-16 08:00N 31°57' W 080°39'1 1.1
2018-Feb-16 07:30N 31°57' W 080°39'4 8.2
2018-Feb-16 07:00N 31°57' W 080°44'0 0.8
2018-Feb-16 06:30N 31°57' W 080°44'4 7.9
2018-Feb-16 05:59N 31°57' W 080°39'0 0.7
2018-Feb-16 05:30N 31°57' W 080°39'0 0.3
2018-Feb-16 04:55N 31°57' W 080°39'1 3.4
2018-Feb-16 04:30N 31°57' W 080°40'4 8.8
2018-Feb-16 04:00N 31°56' W 080°46'0 0.8
2018-Feb-16 03:29N 31°56' W 080°45'6 8.0
2018-Feb-16 02:43N 31°57' W 080°38'0 1.1
2018-Feb-16 02:30N 31°57' W 080°38'1 1.5
2018-Feb-16 01:57N 31°57' W 080°39'0 0.4
2018-Feb-16 01:29N 31°57' W 080°39'3 7.2
2018-Feb-16 01:00N 31°57' W 080°43'3 5.2
2018-Feb-16 00:30N 31°57' W 080°46'6 6.7
2018-Feb-15 23:34N 31°57' W 080°39'0 1.6
2018-Feb-15 23:30N 31°57' W 080°39'0 0.0
2018-Feb-15 23:00N 31°57' W 080°39'0 0.0
2018-Feb-15 22:20N 31°57' W 080°39'0 0.8
2018-Feb-15 21:59N 31°57' W 080°39'4 7.4
2018-Feb-15 21:30N 31°57' W 080°43'2 3.5
2018-Feb-15 21:00N 31°57' W 080°45'6 7.6
2018-Feb-15 20:12N 31°57' W 080°38'1 2.5
2018-Feb-15 19:59N 31°57' W 080°39'0 0.4
2018-Feb-15 19:30N 31°57' W 080°39'0 0.1
2018-Feb-15 19:00N 31°57' W 080°39'2 4.6
2018-Feb-15 18:29N 31°57' W 080°42'4 8.6
2018-Feb-15 18:01N 31°57' W 080°46'7 5.2
2018-Feb-15 16:38N 31°57' W 080°38'1 1.8
2018-Feb-15 16:10N 31°57' W 080°39'1 1.6
2018-Feb-15 15:49N 31°57' W 080°38'1 1.5
2018-Feb-15 15:24N 31°57' W 080°38'0 1.0
2018-Feb-15 14:59N 31°57' W 080°38'1 1.6
2018-Feb-15 14:28N 31°57' W 080°39'0 0.6
2018-Feb-15 13:51N 31°57' W 080°39'1 3.1
2018-Feb-15 13:26N 31°57' W 080°40'2 5.2
2018-Feb-15 12:58N 31°58' W 080°43'4 8.3
2018-Feb-15 12:30N 31°54' W 080°42'2 3.6
2018-Feb-15 12:00N 31°52' W 080°41'  
Track history (hours):
 
Tides and Currents Weather Stations Pressure Air Temp Water Temp Dewpoint Dewpoint Depression Visibility Wind Speed Wind Dir Waves Ship Positions

Padre Island

Owner: Great Lakes Dredge & Dock Company, Oak Brook, IL. More information available from US FCC via Universal Licensing System and Coast Guard Vessel Documentation Center.

Last reported at 2018-Feb-24 04:30 UTC. Time now 2018-Feb-24 04:39 UTC.
Position N 31°59' W 080°44'.

Length 86 m; draft 19.6 m.

Type: Dredging. MMSI: 367525000.

Date/timePositionNaut miles runAvg speedWind from/ knotsBaromVisibWave heightAir tempDewpointWater temp
2018-Feb-24 04:30N 31°59' W 080°44'0 0.3
2018-Feb-24 04:00N 31°59' W 080°45'1 1.5
2018-Feb-24 03:30N 31°58' W 080°44'0 0.1
2018-Feb-24 03:00N 31°58' W 080°44'0 0.9
2018-Feb-24 02:31N 31°58' W 080°44'0 0.2
2018-Feb-24 02:01N 31°58' W 080°44'0 0.5
2018-Feb-24 01:30N 31°58' W 080°44'4 8.3
2018-Feb-24 01:00N 32°00' W 080°48'4 7.7
2018-Feb-24 00:30N 32°02' W 080°52'2 4.1
2018-Feb-24 00:00N 32°02' W 080°54'0 0.1
2018-Feb-23 23:31N 32°02' W 080°54'0 0.0
2018-Feb-23 23:00N 32°02' W 080°54'1 1.1
2018-Feb-23 22:31N 32°02' W 080°54'4 7.0
2018-Feb-23 22:00N 32°02' W 080°49'4 8.1
2018-Feb-23 21:30N 31°59' W 080°46'2 3.3
2018-Feb-23 21:00N 31°58' W 080°44'1 1.3
2018-Feb-23 20:30N 31°58' W 080°44'0 0.1
2018-Feb-23 20:00N 31°58' W 080°44'0 0.8
2018-Feb-23 19:30N 31°58' W 080°44'1 1.0
2018-Feb-23 19:00N 31°59' W 080°45'1 1.1
2018-Feb-23 18:30N 31°59' W 080°45'0 0.2
2018-Feb-23 18:00N 31°59' W 080°45'4 8.5
2018-Feb-23 17:30N 32°02' W 080°49'4 8.2
2018-Feb-23 17:00N 32°02' W 080°54'1 1.0
2018-Feb-23 16:30N 32°02' W 080°55'0 0.0
2018-Feb-23 16:00N 32°02' W 080°55'1 1.5
2018-Feb-23 15:30N 32°02' W 080°54'4 8.2
2018-Feb-23 15:00N 32°02' W 080°49'4 7.9
2018-Feb-23 14:30N 31°59' W 080°45'1 1.9
2018-Feb-23 13:58N 31°58' W 080°44'1 1.7
2018-Feb-23 13:30N 31°58' W 080°43'1 1.5
2018-Feb-23 13:00N 31°58' W 080°44'1 1.4
2018-Feb-23 12:30N 31°59' W 080°45'0 0.5
2018-Feb-23 11:59N 31°59' W 080°45'0 0.8
2018-Feb-23 11:31N 31°59' W 080°45'0 0.8
2018-Feb-23 11:01N 31°59' W 080°45'1 1.5
2018-Feb-23 10:30N 31°59' W 080°44'1 1.1
2018-Feb-23 10:00N 31°58' W 080°44'1 1.4
2018-Feb-23 09:30N 31°58' W 080°44'2 4.9
2018-Feb-23 09:00N 31°56' W 080°46'3 5.8
2018-Feb-23 08:30N 31°59' W 080°46'3 6.7
2018-Feb-23 08:00N 32°01' W 080°49'1 1.7
2018-Feb-23 07:30N 32°01' W 080°48'0 0.1
2018-Feb-23 07:00N 32°01' W 080°48'0 0.2
2018-Feb-23 06:30N 32°01' W 080°48'0 0.3
2018-Feb-23 06:01N 32°01' W 080°48'1 1.3
2018-Feb-23 05:30N 32°01' W 080°48'0 0.4
2018-Feb-23 04:59N 32°01' W 080°48'0 0.5
2018-Feb-23 04:28N 32°01' W 080°48'0 0.3
2018-Feb-23 04:00N 32°01' W 080°49'0 0.0
2018-Feb-23 03:30N 32°01' W 080°49'3 7.0
2018-Feb-23 03:00N 31°59' W 080°46'3 5.8
2018-Feb-23 02:30N 31°56' W 080°47'3 6.1
2018-Feb-23 02:00N 31°59' W 080°46'3 6.7
2018-Feb-23 01:30N 32°01' W 080°49'0 0.1
2018-Feb-23 01:01N 32°01' W 080°49'0 0.3
2018-Feb-23 00:30N 32°02' W 080°49'0 0.1
2018-Feb-23 00:00N 32°01' W 080°49'0 0.4
2018-Feb-22 23:31N 32°01' W 080°49'0 0.1
2018-Feb-22 23:00N 32°01' W 080°49'0 0.1
2018-Feb-22 22:30N 32°01' W 080°49'0 0.3
2018-Feb-22 22:00N 32°01' W 080°48'0 0.0
2018-Feb-22 21:30N 32°01' W 080°48'0 0.0
2018-Feb-22 21:00N 32°01' W 080°48'0 0.2
2018-Feb-22 20:30N 32°01' W 080°49'1 1.3
2018-Feb-22 19:59N 32°01' W 080°48'0 0.4
2018-Feb-22 19:30N 32°01' W 080°48'3 5.2
2018-Feb-22 19:00N 32°02' W 080°50'4 7.3
2018-Feb-22 18:30N 32°02' W 080°54'0 0.1
2018-Feb-22 18:00N 32°02' W 080°55'0 0.0
2018-Feb-22 17:29N 32°02' W 080°55'0 0.2
2018-Feb-22 17:00N 32°02' W 080°55'4 8.3
2018-Feb-22 16:30N 32°02' W 080°50'4 8.4
2018-Feb-22 16:00N 31°59' W 080°46'1 2.6
2018-Feb-22 15:30N 31°59' W 080°45'1 1.7
2018-Feb-22 15:00N 31°58' W 080°44'0 0.1
2018-Feb-22 14:30N 31°58' W 080°44'1 1.6
2018-Feb-22 14:00N 31°59' W 080°45'1 1.8
2018-Feb-22 13:30N 31°59' W 080°46'4 8.1
2018-Feb-22 13:00N 32°02' W 080°49'4 8.0
2018-Feb-22 12:31N 32°02' W 080°54'1 1.3
2018-Feb-22 12:00N 32°02' W 080°54'0 0.0
2018-Feb-22 11:30N 32°02' W 080°54'1 3.0
2018-Feb-22 11:00N 32°02' W 080°53'4 7.3
2018-Feb-22 10:30N 32°01' W 080°48'4 7.7
2018-Feb-22 10:00N 31°59' W 080°45'0 0.3
2018-Feb-22 09:30N 31°59' W 080°45'1 1.4
2018-Feb-22 09:00N 31°58' W 080°44'0 0.8
2018-Feb-22 08:30N 31°59' W 080°45'0 0.3
2018-Feb-22 08:00N 31°59' W 080°45'0 0.9
2018-Feb-22 07:30N 31°58' W 080°44'0 0.8
2018-Feb-22 07:00N 31°58' W 080°44'0 0.7
2018-Feb-22 06:30N 31°58' W 080°44'2 4.8
2018-Feb-22 06:00N 31°59' W 080°46'4 8.5
2018-Feb-22 05:31N 32°02' W 080°50'4 8.0
2018-Feb-22 05:01N 32°02' W 080°55'0 0.1
2018-Feb-22 04:30N 32°02' W 080°55'0 0.0
2018-Feb-22 04:00N 32°02' W 080°55'0 0.3
2018-Feb-22 03:30N 32°02' W 080°54'4 8.6
2018-Feb-22 03:00N 32°02' W 080°49'4 8.5
2018-Feb-22 02:30N 31°59' W 080°46'1 1.1
2018-Feb-22 02:00N 31°59' W 080°45'0 0.0
2018-Feb-22 01:30N 31°59' W 080°45'1 2.1
2018-Feb-22 01:00N 31°58' W 080°44'0 0.3
2018-Feb-22 00:30N 31°58' W 080°44'1 1.4
2018-Feb-22 00:01N 31°59' W 080°45'1 2.7
2018-Feb-21 23:30N 31°59' W 080°46'4 8.2
2018-Feb-21 23:00N 32°02' W 080°50'3 6.6
2018-Feb-21 22:30N 32°02' W 080°53'1 1.6
2018-Feb-21 22:00N 32°02' W 080°54'0 0.0
2018-Feb-21 21:30N 32°02' W 080°54'0 0.1
2018-Feb-21 21:00N 32°02' W 080°54'2 4.1
2018-Feb-21 20:31N 32°02' W 080°52'3 6.6
2018-Feb-21 20:00N 32°01' W 080°48'3 6.8
2018-Feb-21 19:30N 31°59' W 080°45'1 1.2
2018-Feb-21 19:00N 31°59' W 080°45'0 0.7
2018-Feb-21 18:29N 31°58' W 080°44'0 1.0
2018-Feb-21 18:00N 31°58' W 080°44'0 0.2
2018-Feb-21 17:31N 31°58' W 080°44'0 0.8
2018-Feb-21 16:59N 31°58' W 080°44'1 1.2
2018-Feb-21 16:31N 31°59' W 080°45'2 2.9
2018-Feb-21 15:59N 31°59' W 080°46'4 8.4
2018-Feb-21 15:31N 32°02' W 080°50'4 8.1
2018-Feb-21 15:00N 32°02' W 080°55'0 0.2
2018-Feb-21 14:30N 32°02' W 080°55'0 0.0
2018-Feb-21 14:00N 32°02' W 080°55'0 0.0
2018-Feb-21 13:30N 32°02' W 080°55'0 0.6
2018-Feb-21 13:00N 32°02' W 080°54'4 8.2
2018-Feb-21 12:30N 32°02' W 080°49'4 8.4
2018-Feb-21 12:00N 31°59' W 080°46'2 3.7
2018-Feb-21 11:30N 31°58' W 080°44'1 2.1
2018-Feb-21 11:01N 31°59' W 080°45'0 0.4
2018-Feb-21 10:30N 31°59' W 080°45'0 0.7
2018-Feb-21 10:00N 31°59' W 080°45'0 0.5
2018-Feb-21 09:30N 31°58' W 080°44'0 0.7
2018-Feb-21 09:00N 31°58' W 080°44'0 0.6
2018-Feb-21 08:30N 31°58' W 080°44'1 1.2
2018-Feb-21 08:00N 31°58' W 080°44'4 8.4
2018-Feb-21 07:30N 32°01' W 080°48'4 8.0
2018-Feb-21 07:00N 32°02' W 080°53'1 2.5
2018-Feb-21 06:31N 32°02' W 080°54'0 0.0
2018-Feb-21 06:00N 32°02' W 080°54'0 0.7
2018-Feb-21 05:30N 32°02' W 080°54'4 8.3
2018-Feb-21 05:01N 32°02' W 080°49'4 8.6
2018-Feb-21 04:30N 31°59' W 080°45'1 2.8
2018-Feb-21 04:00N 31°58' W 080°44'0 0.4
2018-Feb-21 03:29N 31°58' W 080°44'1 1.3
2018-Feb-21 02:59N 31°58' W 080°44'1 1.6
2018-Feb-21 02:31N 31°59' W 080°45'2 4.5
2018-Feb-21 02:00N 32°00' W 080°47'4 7.9
2018-Feb-21 01:30N 32°02' W 080°51'3 5.5
2018-Feb-21 01:00N 32°02' W 080°55'0 0.0
2018-Feb-21 00:30N 32°02' W 080°55'0 0.0
2018-Feb-21 00:00N 32°02' W 080°55'2 4.9
2018-Feb-20 23:30N 32°02' W 080°52'3 6.4
2018-Feb-20 23:00N 32°01' W 080°48'4 7.1
2018-Feb-20 22:30N 31°59' W 080°45'1 1.2
2018-Feb-20 22:00N 31°58' W 080°44'1 1.2
2018-Feb-20 21:30N 31°59' W 080°45'0 0.4
2018-Feb-20 21:00N 31°59' W 080°45'0 0.5
2018-Feb-20 20:30N 31°59' W 080°45'0 0.4
2018-Feb-20 20:00N 31°59' W 080°45'0 0.6
2018-Feb-20 19:30N 31°58' W 080°44'0 0.9
2018-Feb-20 19:00N 31°58' W 080°44'2 3.9
2018-Feb-20 18:30N 31°59' W 080°46'4 8.8
2018-Feb-20 18:00N 32°02' W 080°50'4 6.7
2018-Feb-20 17:27N 32°02' W 080°54'0 0.9
2018-Feb-20 17:00N 32°02' W 080°55'0 0.0
2018-Feb-20 16:30N 32°02' W 080°55'0 0.2
2018-Feb-20 16:00N 32°02' W 080°55'4 8.3
2018-Feb-20 15:30N 32°02' W 080°50'4 8.4
2018-Feb-20 15:00N 31°59' W 080°46'1 2.7
2018-Feb-20 14:29N 31°59' W 080°45'1 1.8
2018-Feb-20 14:00N 31°58' W 080°44'0 0.6
2018-Feb-20 13:30N 31°58' W 080°44'1 1.6
2018-Feb-20 12:59N 31°59' W 080°45'1 2.2
2018-Feb-20 12:30N 31°59' W 080°46'4 8.5
2018-Feb-20 12:01N 32°02' W 080°49'3 6.6
2018-Feb-20 11:30N 32°02' W 080°53'1 1.7
2018-Feb-20 11:00N 32°02' W 080°54'0 0.1
2018-Feb-20 10:30N 32°02' W 080°54'0 0.1
2018-Feb-20 10:00N 32°02' W 080°54'3 5.8
2018-Feb-20 09:30N 32°02' W 080°51'4 7.5
2018-Feb-20 09:00N 31°60' W 080°47'2 4.5
2018-Feb-20 08:30N 31°59' W 080°45'0 0.4
2018-Feb-20 08:00N 31°59' W 080°45'0 0.6
2018-Feb-20 07:30N 31°59' W 080°45'0 0.4
2018-Feb-20 07:00N 31°59' W 080°45'0 0.4
2018-Feb-20 06:31N 31°59' W 080°45'0 0.7
2018-Feb-20 06:00N 31°58' W 080°44'0 0.4
2018-Feb-20 05:30N 31°58' W 080°44'0 0.8
2018-Feb-20 05:00N 31°58' W 080°44'4 7.6
2018-Feb-20 04:30N 31°60' W 080°47'4 7.9
2018-Feb-20 03:59N 32°02' W 080°51'3 5.5
2018-Feb-20 03:31N 32°02' W 080°55'0 0.0
2018-Feb-20 03:00N 32°02' W 080°55'0 0.4
2018-Feb-20 02:30N 32°02' W 080°55'4 7.4
2018-Feb-20 02:00N 32°02' W 080°50'4 7.8
2018-Feb-20 01:30N 31°60' W 080°47'2 3.9
2018-Feb-20 01:00N 31°59' W 080°45'1 1.9
2018-Feb-20 00:30N 31°58' W 080°44'0 0.1
2018-Feb-20 00:00N 31°58' W 080°44'0 0.5
2018-Feb-19 23:31N 31°58' W 080°44'1 1.9
2018-Feb-19 23:00N 31°59' W 080°45'3 5.2
2018-Feb-19 22:30N 32°00' W 080°48'4 7.9
2018-Feb-19 21:58N 32°02' W 080°52'2 4.2
2018-Feb-19 21:31N 32°02' W 080°54'0 0.0
2018-Feb-19 21:00N 32°02' W 080°54'0 0.0
2018-Feb-19 20:30N 32°02' W 080°54'0 0.4
2018-Feb-19 20:00N 32°02' W 080°55'0 0.4
2018-Feb-19 19:30N 32°02' W 080°54'1 1.6
2018-Feb-19 19:00N 32°02' W 080°53'4 6.9
2018-Feb-19 18:29N 32°02' W 080°49'4 8.2
2018-Feb-19 18:00N 31°59' W 080°46'1 2.9
2018-Feb-19 17:30N 31°58' W 080°44'0 0.7
2018-Feb-19 16:58N 31°58' W 080°44'0 0.9
2018-Feb-19 16:30N 31°58' W 080°44'1 1.1
2018-Feb-19 16:00N 31°58' W 080°44'1 1.6
2018-Feb-19 15:30N 31°59' W 080°45'2 4.2
2018-Feb-19 15:01N 31°60' W 080°47'4 8.1
2018-Feb-19 14:30N 32°02' W 080°51'3 6.4
2018-Feb-19 14:00N 32°02' W 080°55'0 0.0
2018-Feb-19 13:30N 32°02' W 080°55'0 0.0
2018-Feb-19 13:00N 32°02' W 080°55'0 0.0
2018-Feb-19 12:30N 32°02' W 080°55'0 0.0
2018-Feb-19 12:01N 32°02' W 080°54'0 0.1
2018-Feb-19 11:30N 32°02' W 080°55'2 5.0
2018-Feb-19 11:00N 32°02' W 080°52'4 7.9
2018-Feb-19 10:30N 32°00' W 080°48'3 5.8
2018-Feb-19 09:59N 31°59' W 080°45'1 1.2
2018-Feb-19 09:30N 31°59' W 080°45'0 0.2
2018-Feb-19 09:00N 31°59' W 080°45'0 0.9
2018-Feb-19 08:30N 31°59' W 080°45'0 1.0
2018-Feb-19 08:01N 31°58' W 080°44'0 0.6
2018-Feb-19 07:30N 31°58' W 080°44'0 0.4
2018-Feb-19 07:00N 31°58' W 080°44'4 8.0
2018-Feb-19 06:30N 32°01' W 080°48'4 8.1
2018-Feb-19 06:00N 32°02' W 080°52'2 3.1
2018-Feb-19 05:29N 32°02' W 080°54'0 0.0
2018-Feb-19 05:00N 32°02' W 080°54'0 0.4
2018-Feb-19 04:30N 32°02' W 080°54'4 7.8
2018-Feb-19 04:00N 32°02' W 080°50'4 8.3
2018-Feb-19 03:30N 31°59' W 080°46'2 3.0
2018-Feb-19 03:00N 31°58' W 080°44'1 1.6
2018-Feb-19 02:30N 31°58' W 080°44'1 1.4
2018-Feb-19 02:00N 31°58' W 080°44'1 1.8
2018-Feb-19 01:30N 31°59' W 080°45'3 6.0
2018-Feb-19 01:00N 32°01' W 080°48'4 7.8
2018-Feb-19 00:30N 32°02' W 080°52'2 4.0
2018-Feb-19 00:00N 32°02' W 080°55'0 0.0
2018-Feb-18 23:30N 32°02' W 080°55'0 0.0
2018-Feb-18 23:00N 32°02' W 080°55'2 3.9
2018-Feb-18 22:30N 32°02' W 080°52'4 8.1
2018-Feb-18 22:00N 32°01' W 080°48'4 7.0
2018-Feb-18 21:30N 31°59' W 080°44'1 1.1
2018-Feb-18 21:00N 31°58' W 080°44'0 0.9
2018-Feb-18 20:30N 31°58' W 080°44'0 0.4
2018-Feb-18 20:00N 31°59' W 080°45'0 0.8
2018-Feb-18 19:30N 31°58' W 080°44'0 0.7
2018-Feb-18 19:00N 31°58' W 080°44'1 1.3
2018-Feb-18 18:30N 31°58' W 080°45'4 8.5
2018-Feb-18 18:00N 32°01' W 080°48'4 8.2
2018-Feb-18 17:30N 32°02' W 080°53'1 2.1
2018-Feb-18 17:00N 32°02' W 080°54'0 0.0
2018-Feb-18 16:30N 32°02' W 080°54'1 2.0
2018-Feb-18 16:00N 32°02' W 080°53'4 7.9
2018-Feb-18 15:30N 32°01' W 080°49'4 8.2
2018-Feb-18 14:58N 31°59' W 080°45'1 1.5
2018-Feb-18 14:31N 31°58' W 080°44'0 0.4
2018-Feb-18 14:00N 31°58' W 080°44'1 1.4
2018-Feb-18 13:30N 31°59' W 080°44'1 1.7
2018-Feb-18 13:00N 31°59' W 080°45'3 6.9
2018-Feb-18 12:30N 32°01' W 080°48'3 6.2
2018-Feb-18 12:00N 32°02' W 080°52'2 4.4
2018-Feb-18 11:30N 32°02' W 080°55'0 0.0
2018-Feb-18 11:00N 32°02' W 080°55'0 0.0
2018-Feb-18 10:30N 32°02' W 080°55'0 0.2
2018-Feb-18 10:00N 32°02' W 080°55'3 6.2
2018-Feb-18 09:30N 32°02' W 080°51'4 8.4
2018-Feb-18 09:00N 31°60' W 080°47'2 3.6
2018-Feb-18 08:30N 31°59' W 080°45'0 0.5
2018-Feb-18 08:00N 31°59' W 080°45'0 0.8
2018-Feb-18 07:30N 31°59' W 080°45'0 0.7
2018-Feb-18 07:00N 31°58' W 080°44'1 1.0
2018-Feb-18 06:30N 31°58' W 080°44'2 4.5
2018-Feb-18 06:00N 31°59' W 080°46'4 8.4
2018-Feb-18 05:30N 32°02' W 080°50'4 8.0
2018-Feb-18 05:01N 32°02' W 080°54'0 0.2
2018-Feb-18 04:30N 32°02' W 080°54'0 0.1
2018-Feb-18 04:00N 32°02' W 080°54'0 0.2
2018-Feb-18 03:30N 32°02' W 080°54'0 0.2
2018-Feb-18 03:00N 32°02' W 080°55'4 8.1
2018-Feb-18 02:30N 32°02' W 080°50'4 8.4
2018-Feb-18 02:00N 31°59' W 080°46'2 4.5
2018-Feb-18 01:30N 31°58' W 080°44'1 1.3
2018-Feb-18 01:01N 31°58' W 080°44'0 0.6
2018-Feb-18 00:28N 31°58' W 080°45'0 0.9
2018-Feb-18 00:00N 31°59' W 080°45'2 3.2
2018-Feb-17 23:30N 31°60' W 080°47'4 8.1
2018-Feb-17 23:00N 32°02' W 080°50'3 6.9
2018-Feb-17 22:30N 32°02' W 080°54'0 0.1
2018-Feb-17 22:00N 32°02' W 080°54'0 0.1
2018-Feb-17 21:30N 32°02' W 080°54'1 2.3
2018-Feb-17 20:58N 32°02' W 080°53'4 7.7
2018-Feb-17 20:30N 32°01' W 080°49'4 8.0
2018-Feb-17 19:59N 31°59' W 080°45'0 0.5
2018-Feb-17 19:30N 31°59' W 080°45'0 0.9
2018-Feb-17 19:00N 31°59' W 080°45'0 0.7
2018-Feb-17 18:30N 31°58' W 080°45'0 0.9
2018-Feb-17 18:00N 31°58' W 080°44'0 0.9
2018-Feb-17 17:31N 31°58' W 080°44'4 7.0
2018-Feb-17 16:59N 31°60' W 080°47'4 8.1
2018-Feb-17 16:30N 32°02' W 080°51'3 5.6
2018-Feb-17 16:00N 32°02' W 080°54'0 0.2
2018-Feb-17 15:30N 32°02' W 080°54'0 0.2
2018-Feb-17 15:00N 32°02' W 080°55'0 0.1
2018-Feb-17 14:28N 32°02' W 080°55'3 5.8
2018-Feb-17 14:00N 32°02' W 080°51'4 7.8
2018-Feb-17 13:30N 32°00' W 080°48'3 6.1
2018-Feb-17 13:00N 31°59' W 080°45'1 1.1
2018-Feb-17 12:30N 31°58' W 080°44'0 0.8
2018-Feb-17 12:00N 31°58' W 080°44'0 0.8
2018-Feb-17 11:30N 31°58' W 080°44'1 1.0
2018-Feb-17 11:00N 31°59' W 080°45'1 1.1
2018-Feb-17 10:29N 31°59' W 080°45'2 4.5
2018-Feb-17 10:00N 31°57' W 080°45'2 4.2
2018-Feb-17 09:30N 31°56' W 080°43'4 8.2
2018-Feb-17 09:01N 31°57' W 080°38'1 1.6
2018-Feb-17 08:30N 31°57' W 080°39'0 0.2
2018-Feb-17 08:00N 31°57' W 080°39'0 0.4
2018-Feb-17 07:30N 31°57' W 080°39'4 8.3
2018-Feb-17 07:00N 31°57' W 080°44'2 4.1
2018-Feb-17 06:30N 31°57' W 080°46'5 8.0
2018-Feb-17 05:50N 31°57' W 080°40'1 4.2
2018-Feb-17 05:30N 31°57' W 080°38'1 1.1
2018-Feb-17 05:00N 31°57' W 080°39'0 0.6
2018-Feb-17 04:30N 31°57' W 080°39'2 3.6
2018-Feb-17 04:00N 31°57' W 080°41'4 8.6
2018-Feb-17 03:30N 31°57' W 080°46'1 2.5
2018-Feb-17 03:00N 31°56' W 080°45'5 8.4
2018-Feb-17 02:26N 31°57' W 080°39'1 1.8
2018-Feb-17 02:00N 31°57' W 080°38'1 1.2
2018-Feb-17 01:30N 31°57' W 080°39'0 0.1
2018-Feb-17 01:00N 31°57' W 080°39'4 7.6
2018-Feb-17 00:30N 31°57' W 080°43'1 2.7
2018-Feb-17 00:00N 31°56' W 080°45'5 5.7
2018-Feb-16 23:04N 31°57' W 080°38'0 1.0
2018-Feb-16 22:57N 31°57' W 080°38'0 0.3
2018-Feb-16 22:23N 31°57' W 080°38'1 1.6
2018-Feb-16 21:59N 31°57' W 080°39'0 0.2
2018-Feb-16 21:29N 31°57' W 080°39'4 7.4
2018-Feb-16 21:00N 31°57' W 080°43'2 3.2
2018-Feb-16 20:30N 31°57' W 080°45'6 7.1
2018-Feb-16 19:43N 31°57' W 080°39'0 1.2
2018-Feb-16 19:30N 31°57' W 080°39'0 0.2
2018-Feb-16 19:00N 31°57' W 080°39'0 0.1
2018-Feb-16 18:26N 31°57' W 080°39'3 7.3
2018-Feb-16 18:00N 31°57' W 080°43'3 6.3
2018-Feb-16 17:30N 31°57' W 080°46'1 2.1
2018-Feb-16 16:59N 31°56' W 080°46'6 7.9
2018-Feb-16 16:12N 31°57' W 080°38'0 0.9
2018-Feb-16 15:57N 31°57' W 080°38'0 0.2
2018-Feb-16 15:29N 31°57' W 080°38'1 1.4
2018-Feb-16 15:00N 31°57' W 080°39'1 1.5
2018-Feb-16 14:30N 31°57' W 080°40'4 8.6
2018-Feb-16 14:00N 31°56' W 080°45'1 1.2
2018-Feb-16 13:28N 31°56' W 080°46'7 8.1
2018-Feb-16 12:39N 31°57' W 080°38'0 1.2
2018-Feb-16 12:30N 31°57' W 080°38'0 0.2
2018-Feb-16 12:00N 31°57' W 080°38'0 0.4
2018-Feb-16 11:30N 31°57' W 080°38'0 0.9
2018-Feb-16 11:00N 31°57' W 080°39'1 2.3
2018-Feb-16 10:30N 31°57' W 080°40'4 8.5
2018-Feb-16 10:01N 31°57' W 080°45'3 5.4
2018-Feb-16 09:24N 31°57' W 080°41'3 6.7
2018-Feb-16 09:00N 31°57' W 080°38'0 0.4
2018-Feb-16 08:30N 31°57' W 080°38'0 1.0
2018-Feb-16 08:00N 31°57' W 080°39'1 1.1
2018-Feb-16 07:30N 31°57' W 080°39'4 8.2
2018-Feb-16 07:00N 31°57' W 080°44'0 0.8
2018-Feb-16 06:30N 31°57' W 080°44'4 7.9
2018-Feb-16 05:59N 31°57' W 080°39'0 0.7
2018-Feb-16 05:30N 31°57' W 080°39'0 0.3
2018-Feb-16 04:55N 31°57' W 080°39'1 3.4
2018-Feb-16 04:30N 31°57' W 080°40'4 8.8
2018-Feb-16 04:00N 31°56' W 080°46'0 0.8
2018-Feb-16 03:29N 31°56' W 080°45'6 8.0
2018-Feb-16 02:43N 31°57' W 080°38'0 1.1
2018-Feb-16 02:30N 31°57' W 080°38'1 1.5
2018-Feb-16 01:57N 31°57' W 080°39'0 0.4
2018-Feb-16 01:29N 31°57' W 080°39'3 7.2
2018-Feb-16 01:00N 31°57' W 080°43'3 5.2
2018-Feb-16 00:30N 31°57' W 080°46'6 6.7
2018-Feb-15 23:34N 31°57' W 080°39'0 1.6
2018-Feb-15 23:30N 31°57' W 080°39'0 0.0
2018-Feb-15 23:00N 31°57' W 080°39'0 0.0
2018-Feb-15 22:20N 31°57' W 080°39'0 0.8
2018-Feb-15 21:59N 31°57' W 080°39'4 7.4
2018-Feb-15 21:30N 31°57' W 080°43'2 3.5
2018-Feb-15 21:00N 31°57' W 080°45'6 7.6
2018-Feb-15 20:12N 31°57' W 080°38'1 2.5
2018-Feb-15 19:59N 31°57' W 080°39'0 0.4
2018-Feb-15 19:30N 31°57' W 080°39'0 0.1
2018-Feb-15 19:00N 31°57' W 080°39'2 4.6
2018-Feb-15 18:29N 31°57' W 080°42'4 8.6
2018-Feb-15 18:01N 31°57' W 080°46'7 5.2
2018-Feb-15 16:38N 31°57' W 080°38'1 1.8
2018-Feb-15 16:10N 31°57' W 080°39'1 1.6
2018-Feb-15 15:49N 31°57' W 080°38'1 1.5
2018-Feb-15 15:24N 31°57' W 080°38'0 1.0
2018-Feb-15 14:59N 31°57' W 080°38'1 1.6
2018-Feb-15 14:28N 31°57' W 080°39'0 0.6
2018-Feb-15 13:51N 31°57' W 080°39'1 3.1
2018-Feb-15 13:26N 31°57' W 080°40'2 5.2
2018-Feb-15 12:58N 31°58' W 080°43'4 8.3
2018-Feb-15 12:30N 31°54' W 080°42'2 3.6
2018-Feb-15 12:00N 31°52' W 080°41'  

Dump ship's entire track history